Arcola, Illinois
Current Conditions -  °F | °C
As of 5:53 AM on Monday 20 Oct 2014 (Local Time) from KMTO Reporting Station
Broken Clouds Broken Clouds  
Wind Chill: 50°   Ceiling: 9500
Heat Index: 50°   Visibility: 10mi
Dew Point: 46°   Wind: 12mph
Humidity: 86%   Direction: 200°SSW
Pressure: 29.92"   Gusts: NA
Location:  39.68°N, 88.31°W
Report Text: KMTO 201053Z AUTO 20010KT 10SM BKN095 BKN110 10/08 A2992 RMK AO2 SLP133 T01000078
Loading
Personal Weather Stations






























Interactive Weather Map
Tropical Storm Tracking
New forecast layout! Learn more

10-Day Weather Forecast

Advertisements
Track Severe Weather on mobile